createdAt,value
2023-05-02T00:02:21.837Z,102443.01
2023-05-02T00:04:49.143Z,102442.52
2023-05-02T00:07:16.180Z,102444.39
2023-05-02T00:09:43.175Z,102449.58
2023-05-02T00:12:10.209Z,102450.41
2023-05-02T00:14:37.248Z,102459.39
2023-05-02T00:17:04.421Z,102462.60
2023-05-02T00:19:31.589Z,102467.94
2023-05-02T00:21:58.549Z,102474.33
2023-05-02T00:24:27.195Z,102475.28
2023-05-02T00:26:54.230Z,102474.54
2023-05-02T00:29:22.135Z,102481.61
2023-05-02T00:31:49.150Z,102485.02
2023-05-02T00:34:16.214Z,102487.02
2023-05-02T00:36:43.224Z,102491.41
2023-05-02T00:39:11.048Z,102492.05
2023-05-02T00:41:38.039Z,102497.77
2023-05-02T00:44:05.240Z,102501.77
2023-05-02T00:46:32.430Z,102501.02
2023-05-02T00:48:59.546Z,102502.74
2023-05-02T00:51:27.627Z,102504.27
2023-05-02T00:53:54.951Z,102507.67
2023-05-02T00:56:21.979Z,102510.02
2023-05-02T00:58:49.024Z,102516.55
2023-05-02T01:01:25.815Z,102517.02
2023-05-02T01:04:21.307Z,102516.44
2023-05-02T01:06:58.849Z,102521.40
2023-05-02T01:10:07.613Z,102522.70
2023-05-02T01:12:47.416Z,102524.66
2023-05-02T01:15:19.585Z,102530.91
2023-05-02T01:17:47.036Z,102536.30
2023-05-02T01:20:16.661Z,102533.16
2023-05-02T01:22:43.695Z,102538.40
2023-05-02T01:25:16.936Z,102538.05
2023-05-02T01:28:07.564Z,102536.31
2023-05-02T01:30:35.074Z,102538.36
2023-05-02T01:33:02.786Z,102537.89
2023-05-02T01:35:30.010Z,102537.75
2023-05-02T01:37:57.095Z,102541.30
2023-05-02T01:40:25.344Z,102544.27
2023-05-02T01:42:52.364Z,102548.02
2023-05-02T01:45:19.998Z,102549.27
2023-05-02T01:47:47.221Z,102553.33
2023-05-02T01:50:17.759Z,102552.42
2023-05-02T01:52:44.814Z,102545.06
2023-05-02T01:55:13.672Z,102543.96
2023-05-02T01:57:41.404Z,102542.53
2023-05-02T02:00:09.330Z,102545.98
2023-05-02T02:02:42.984Z,102542.90
2023-05-02T02:05:10.854Z,102530.72
2023-05-02T02:07:37.849Z,102528.20
2023-05-02T02:10:05.198Z,102530.69
2023-05-02T02:13:06.771Z,102501.54
2023-05-02T02:15:35.382Z,102493.02
2023-05-02T02:18:09.265Z,102488.35
2023-05-02T02:20:36.458Z,102482.12
2023-05-02T02:23:05.668Z,102478.14
2023-05-02T02:25:33.388Z,102472.05
2023-05-02T02:28:01.292Z,102470.33
2023-05-02T02:30:28.423Z,102471.89
2023-05-02T02:32:55.474Z,102469.97
2023-05-02T02:35:22.734Z,102466.77
2023-05-02T02:38:34.884Z,102469.71
2023-05-02T02:41:17.089Z,102465.71
2023-05-02T02:44:13.504Z,102464.48
2023-05-02T02:47:09.424Z,102460.49
2023-05-02T02:49:42.492Z,102458.48
2023-05-02T02:52:22.708Z,102451.80
2023-05-02T02:54:58.655Z,102450.34
2023-05-02T02:57:30.962Z,102433.96
2023-05-02T03:00:09.013Z,102424.83
2023-05-02T03:02:36.173Z,102414.66
2023-05-02T03:05:04.182Z,102409.21
2023-05-02T03:07:31.727Z,102403.65
2023-05-02T03:09:59.102Z,102394.02
2023-05-02T03:12:26.447Z,102390.52
2023-05-02T03:14:53.450Z,102388.20
2023-05-02T03:17:20.601Z,102375.91
2023-05-02T03:19:47.720Z,102374.17
2023-05-02T03:22:15.160Z,102338.35
2023-05-02T03:24:42.224Z,102338.52
2023-05-02T03:27:09.817Z,102348.40
2023-05-02T03:29:39.349Z,102363.71
2023-05-02T03:32:06.988Z,102388.08
2023-05-02T03:34:34.954Z,102418.41
2023-05-02T03:37:02.071Z,102458.08
2023-05-02T03:39:29.741Z,102495.29
2023-05-02T03:41:56.791Z,102531.28
2023-05-02T03:44:23.994Z,102576.54
2023-05-02T03:46:51.144Z,102618.27
2023-05-02T03:49:19.965Z,102648.25
2023-05-02T03:51:47.733Z,102665.23
2023-05-02T03:54:16.130Z,102669.23
2023-05-02T03:56:45.262Z,102685.45
2023-05-02T03:59:19.414Z,102685.40
2023-05-02T04:01:50.585Z,102669.58
2023-05-02T04:04:19.558Z,102673.04
2023-05-02T04:06:50.268Z,102679.83
2023-05-02T04:09:17.572Z,102721.83
2023-05-02T04:11:52.433Z,102788.81
2023-05-02T04:14:19.627Z,102854.84
2023-05-02T04:16:51.190Z,102882.27
2023-05-02T04:19:23.449Z,102874.27
2023-05-02T04:21:50.632Z,102862.91
2023-05-02T04:24:18.281Z,102855.83
2023-05-02T04:26:47.653Z,102841.70
2023-05-02T04:29:15.158Z,102827.30
2023-05-02T04:31:42.645Z,102810.86
2023-05-02T04:34:11.001Z,102803.53
2023-05-02T04:36:42.791Z,102788.53
2023-05-02T04:39:12.695Z,102782.19
2023-05-02T04:41:44.503Z,102779.44
2023-05-02T04:44:11.604Z,102775.16
2023-05-02T04:46:38.817Z,102763.98
2023-05-02T04:49:05.925Z,102740.67
2023-05-02T04:51:32.941Z,102716.84
2023-05-02T04:53:59.972Z,102690.05
2023-05-02T04:56:27.584Z,102670.73
2023-05-02T04:58:54.936Z,102650.41
2023-05-02T05:01:24.306Z,102625.60
2023-05-02T05:03:51.653Z,102605.11
2023-05-02T05:06:19.682Z,102585.77
2023-05-02T05:08:47.180Z,102570.36
2023-05-02T05:11:16.261Z,102556.47
2023-05-02T05:13:43.473Z,102544.64
2023-05-02T05:16:12.290Z,102524.79
2023-05-02T05:18:42.640Z,102519.13
2023-05-02T05:21:12.519Z,102510.45
2023-05-02T05:23:40.351Z,102510.02
2023-05-02T05:26:16.013Z,102509.63
2023-05-02T05:28:46.088Z,102505.48
2023-05-02T05:31:16.816Z,102493.17
2023-05-02T05:33:46.999Z,102477.66
2023-05-02T05:36:17.572Z,102477.89
2023-05-02T05:38:45.221Z,102470.08
2023-05-02T05:41:12.849Z,102464.81
2023-05-02T05:43:44.410Z,102461.90
2023-05-02T05:46:11.444Z,102461.10
2023-05-02T05:48:38.610Z,102458.90
2023-05-02T05:51:06.118Z,102447.48
2023-05-02T05:53:33.552Z,102443.55
2023-05-02T05:56:12.406Z,102437.48
2023-05-02T05:58:44.476Z,102428.89
2023-05-02T06:01:13.366Z,102417.02
2023-05-02T06:03:41.197Z,102407.58
2023-05-02T06:06:08.611Z,102396.02
2023-05-02T06:08:35.722Z,102385.68
2023-05-02T06:11:04.014Z,102377.97
2023-05-02T06:13:31.267Z,102367.61
2023-05-02T06:16:01.899Z,102358.60
2023-05-02T06:18:29.971Z,102350.12
2023-05-02T06:20:56.983Z,102342.23
2023-05-02T06:23:23.983Z,102339.88
2023-05-02T06:25:51.538Z,102336.54
2023-05-02T06:28:18.678Z,102331.20
2023-05-02T06:30:45.693Z,102326.73
2023-05-02T06:33:13.148Z,102325.90
2023-05-02T06:35:40.151Z,102324.36
2023-05-02T06:38:07.136Z,102316.77
2023-05-02T06:40:36.721Z,102309.40
2023-05-02T06:43:03.755Z,102304.21
2023-05-02T06:45:30.840Z,102301.70
2023-05-02T06:47:57.924Z,102305.58
2023-05-02T06:50:25.005Z,102295.48
2023-05-02T06:52:52.055Z,102290.04
2023-05-02T06:55:19.170Z,102282.83
2023-05-02T06:57:46.602Z,102277.21
2023-05-02T07:00:14.873Z,102266.13
2023-05-02T07:02:41.931Z,102267.53
2023-05-02T07:05:09.277Z,102265.05
2023-05-02T07:07:36.330Z,102257.77
2023-05-02T07:10:04.453Z,102251.08
2023-05-02T07:12:31.638Z,102256.83
2023-05-02T07:14:58.700Z,102246.43
2023-05-02T07:17:25.839Z,102236.27
2023-05-02T07:19:53.273Z,102235.20
2023-05-02T07:22:21.284Z,102232.60
2023-05-02T07:24:48.338Z,102227.67
2023-05-02T07:27:15.382Z,102222.23
2023-05-02T07:29:43.068Z,102216.10
2023-05-02T07:32:10.263Z,102216.73
2023-05-02T07:34:37.385Z,102208.38
2023-05-02T07:37:04.374Z,102205.69
2023-05-02T07:39:33.095Z,102185.55
2023-05-02T07:42:00.212Z,102178.78
2023-05-02T07:44:27.257Z,102165.79
2023-05-02T07:46:54.314Z,102159.50
2023-05-02T07:49:21.440Z,102149.32
2023-05-02T07:51:48.443Z,102139.09
2023-05-02T07:54:19.385Z,102138.48
2023-05-02T07:56:47.301Z,102127.85
2023-05-02T07:59:14.292Z,102121.38
2023-05-02T08:01:44.806Z,102118.02
2023-05-02T08:04:12.360Z,102117.94
2023-05-02T08:06:39.665Z,102100.05
2023-05-02T08:09:06.741Z,102090.98
2023-05-02T08:11:33.827Z,102083.41
2023-05-02T08:14:01.068Z,102063.52
2023-05-02T08:16:28.090Z,102050.58
2023-05-02T08:18:55.184Z,102041.79
2023-05-02T08:21:22.401Z,102037.14
2023-05-02T08:23:49.514Z,102029.15
2023-05-02T08:26:19.258Z,102026.20
2023-05-02T08:28:46.242Z,102019.38
2023-05-02T08:31:13.338Z,102022.52
2023-05-02T08:33:40.514Z,102004.10
2023-05-02T08:36:12.263Z,101987.11
2023-05-02T08:38:39.292Z,101970.13
2023-05-02T08:41:20.089Z,101955.95
2023-05-02T08:43:47.257Z,101951.92
2023-05-02T08:46:16.108Z,101946.02
2023-05-02T08:48:44.958Z,101942.52
2023-05-02T08:51:14.289Z,101941.41
2023-05-02T08:53:41.510Z,101933.84
2023-05-02T08:56:09.137Z,101927.89
2023-05-02T08:58:38.359Z,101926.69
2023-05-02T09:01:19.802Z,101925.83
2023-05-02T09:03:47.870Z,101908.50
2023-05-02T09:06:19.728Z,101903.36
2023-05-02T09:08:52.578Z,101896.15
2023-05-02T09:11:19.654Z,101886.39
2023-05-02T09:13:52.049Z,101876.40
2023-05-02T09:16:23.051Z,101882.55
2023-05-02T09:18:57.624Z,101884.54
2023-05-02T09:21:26.589Z,101885.89
2023-05-02T09:23:55.271Z,101876.95
2023-05-02T09:26:35.353Z,101869.58
2023-05-02T09:29:04.015Z,101874.07
2023-05-02T09:31:54.984Z,101870.30
2023-05-02T09:34:23.759Z,101867.84
2023-05-02T09:36:54.721Z,101854.12
2023-05-02T09:39:25.823Z,101845.28
2023-05-02T09:41:53.585Z,101836.00
2023-05-02T09:44:25.421Z,101832.17
2023-05-02T09:46:53.750Z,101829.89
2023-05-02T09:49:48.960Z,101819.73
2023-05-02T09:52:17.785Z,101815.02
2023-05-02T09:54:47.041Z,101805.14
2023-05-02T09:57:14.315Z,101807.19
2023-05-02T09:59:41.717Z,101796.84
2023-05-02T10:02:11.761Z,101784.65
2023-05-02T10:04:39.797Z,101784.70
2023-05-02T10:07:07.699Z,101776.31
2023-05-02T10:09:36.011Z,101759.52
2023-05-02T10:12:05.336Z,101756.13
2023-05-02T10:14:32.402Z,101753.36
2023-05-02T10:17:09.628Z,101751.95
2023-05-02T10:19:49.182Z,101743.27
2023-05-02T10:22:16.274Z,101738.64
2023-05-02T10:24:43.324Z,101733.22
2023-05-02T10:27:10.373Z,101727.80
2023-05-02T10:29:37.373Z,101718.97
2023-05-02T10:32:04.872Z,101708.25
2023-05-02T10:34:32.901Z,101697.67
2023-05-02T10:37:01.650Z,101689.98
2023-05-02T10:39:29.306Z,101689.16
2023-05-02T10:41:57.991Z,101682.31
2023-05-02T10:44:34.386Z,101681.35
2023-05-02T10:47:01.610Z,101673.23
2023-05-02T10:49:30.106Z,101668.41
2023-05-02T10:51:57.116Z,101657.70
2023-05-02T10:54:24.977Z,101636.42
2023-05-02T10:57:04.550Z,101617.07
2023-05-02T10:59:44.022Z,101604.39
2023-05-02T11:02:23.804Z,101604.50
2023-05-02T11:05:04.708Z,101592.53
2023-05-02T11:07:36.294Z,101592.33
2023-05-02T11:11:38.217Z,101575.58
2023-05-02T11:14:05.299Z,101572.59
2023-05-02T11:17:09.843Z,101564.35
2023-05-02T11:19:46.206Z,101558.79
2023-05-02T11:22:19.387Z,101558.60
2023-05-02T11:24:50.338Z,101553.69
2023-05-02T11:27:30.042Z,101553.60
2023-05-02T11:30:07.206Z,101544.16
2023-05-02T11:32:49.866Z,101542.95
2023-05-02T11:35:24.144Z,101535.66
2023-05-02T11:37:55.216Z,101529.14
2023-05-02T11:40:22.536Z,101527.42
2023-05-02T11:42:49.609Z,101532.05
2023-05-02T11:45:16.944Z,101529.77
2023-05-02T11:47:44.006Z,101528.25
2023-05-02T11:50:11.284Z,101525.39
2023-05-02T11:52:43.186Z,101517.95
2023-05-02T11:55:14.236Z,101516.40
2023-05-02T11:57:41.371Z,101509.78
2023-05-02T12:00:11.178Z,101509.73
2023-05-02T12:02:42.696Z,101510.69
2023-05-02T12:05:12.593Z,101511.18
2023-05-02T12:07:41.967Z,101515.48
2023-05-02T12:10:09.469Z,101519.09
2023-05-02T12:12:36.981Z,101512.66
2023-05-02T12:15:05.162Z,101510.55
2023-05-02T12:17:33.461Z,101512.97
2023-05-02T12:20:00.909Z,101510.45
2023-05-02T12:22:28.167Z,101506.97
2023-05-02T12:24:55.340Z,101511.05
2023-05-02T12:27:22.401Z,101506.34
2023-05-02T12:29:49.750Z,101504.80
2023-05-02T12:32:30.211Z,101509.20
2023-05-02T12:34:58.278Z,101501.55
2023-05-02T12:37:26.203Z,101507.33
2023-05-02T12:39:57.088Z,101510.02
2023-05-02T12:42:25.545Z,101504.86
2023-05-02T12:44:53.420Z,101506.05
2023-05-02T12:47:21.685Z,101506.60
2023-05-02T12:49:53.059Z,101507.83
2023-05-02T12:52:20.678Z,101510.79
2023-05-02T12:54:47.748Z,101511.42
2023-05-02T12:57:25.249Z,101507.23
2023-05-02T12:59:55.420Z,101508.42
2023-05-02T13:02:22.958Z,101505.59
2023-05-02T13:04:50.422Z,101504.43
2023-05-02T13:07:17.484Z,101501.77
2023-05-02T13:09:44.509Z,101497.85
2023-05-02T13:12:11.565Z,101494.69
2023-05-02T13:14:39.411Z,101500.00
2023-05-02T13:17:08.933Z,101499.00
2023-05-02T13:19:37.334Z,101494.35
2023-05-02T13:22:05.879Z,101493.38
2023-05-02T13:24:32.983Z,101492.91
2023-05-02T13:27:00.050Z,101496.29
2023-05-02T13:29:27.106Z,101491.56
2023-05-02T13:31:54.092Z,101493.77
2023-05-02T13:34:21.096Z,101499.98
2023-05-02T13:36:48.172Z,101497.49
2023-05-02T13:39:15.326Z,101497.55
2023-05-02T13:41:42.463Z,101496.01
2023-05-02T13:44:09.663Z,101493.39
2023-05-02T13:46:38.087Z,101493.40
2023-05-02T13:49:05.466Z,101491.54
2023-05-02T13:51:32.697Z,101492.51
2023-05-02T13:53:59.914Z,101493.62
2023-05-02T13:56:27.264Z,101502.39
2023-05-02T13:58:54.266Z,101498.02
2023-05-02T14:01:21.341Z,101501.81
2023-05-02T14:03:48.635Z,101503.48
2023-05-02T14:06:16.727Z,101503.52
2023-05-02T14:08:44.044Z,101503.24
2023-05-02T14:11:11.634Z,101500.45
2023-05-02T14:13:38.622Z,101504.33
2023-05-02T14:16:06.073Z,101499.11
2023-05-02T14:18:33.128Z,101498.75
2023-05-02T14:21:00.381Z,101498.94
2023-05-02T14:23:30.190Z,101503.53
2023-05-02T14:25:57.551Z,101500.21
2023-05-02T14:28:24.552Z,101498.73
2023-05-02T14:30:51.642Z,101504.10
2023-05-02T14:33:18.697Z,101501.84
2023-05-02T14:35:46.148Z,101500.96
2023-05-02T14:38:13.145Z,101494.84
2023-05-02T14:40:40.654Z,101492.80
2023-05-02T14:43:08.565Z,101495.14
2023-05-02T14:45:35.697Z,101490.58
2023-05-02T14:48:02.856Z,101491.35
2023-05-02T14:50:29.931Z,101491.62
2023-05-02T14:52:57.027Z,101488.63
2023-05-02T14:55:24.319Z,101489.48
2023-05-02T14:57:51.320Z,101483.89
2023-05-02T15:00:18.547Z,101481.98
2023-05-02T15:02:45.554Z,101483.07
2023-05-02T15:05:13.065Z,101484.56
2023-05-02T15:07:40.351Z,101481.61
2023-05-02T15:10:08.221Z,101480.30
2023-05-02T15:12:35.361Z,101479.62
2023-05-02T15:15:02.429Z,101478.17
2023-05-02T15:17:29.421Z,101479.30
2023-05-02T15:19:58.378Z,101479.63
2023-05-02T15:22:26.360Z,101483.33
2023-05-02T15:24:53.334Z,101481.36
2023-05-02T15:27:20.466Z,101479.67
2023-05-02T15:29:47.483Z,101480.05
2023-05-02T15:32:14.661Z,101482.85
2023-05-02T15:34:41.806Z,101484.13
2023-05-02T15:37:08.853Z,101482.72
2023-05-02T15:39:35.972Z,101487.27
2023-05-02T15:42:05.132Z,101489.66
2023-05-02T15:44:37.476Z,101489.73
2023-05-02T15:47:04.808Z,101485.15
2023-05-02T15:49:33.475Z,101484.53
2023-05-02T15:52:01.588Z,101487.86
2023-05-02T15:54:28.773Z,101487.30
2023-05-02T15:56:56.033Z,101491.90
2023-05-02T15:59:22.983Z,101489.34
2023-05-02T16:01:50.036Z,101490.75
2023-05-02T16:04:17.136Z,101493.45
2023-05-02T16:06:44.559Z,101494.21
2023-05-02T16:09:13.078Z,101498.25
2023-05-02T16:11:40.141Z,101501.10
2023-05-02T16:14:07.248Z,101505.52
2023-05-02T16:16:34.653Z,101508.84
2023-05-02T16:19:01.711Z,101508.65
2023-05-02T16:21:28.827Z,101513.59
2023-05-02T16:23:55.900Z,101507.73
2023-05-02T16:26:22.922Z,101512.87
2023-05-02T16:28:49.958Z,101512.13
2023-05-02T16:31:16.960Z,101513.85
2023-05-02T16:33:44.095Z,101512.24
2023-05-02T16:36:11.408Z,101518.73
2023-05-02T16:38:38.432Z,101521.08
2023-05-02T16:41:07.325Z,101521.65
2023-05-02T16:43:34.828Z,101521.97
2023-05-02T16:46:02.778Z,101523.83
2023-05-02T16:48:29.855Z,101527.11
2023-05-02T16:50:57.295Z,101529.37
2023-05-02T16:53:24.959Z,101527.05
2023-05-02T16:55:52.127Z,101526.83
2023-05-02T16:58:19.509Z,101527.85
2023-05-02T17:00:46.888Z,101528.46
2023-05-02T17:03:13.995Z,101524.65
2023-05-02T17:05:41.611Z,101526.66
2023-05-02T17:08:09.837Z,101527.92
2023-05-02T17:10:38.026Z,101529.42
2023-05-02T17:13:05.076Z,101531.81
2023-05-02T17:15:38.681Z,101534.58
2023-05-02T17:18:05.932Z,101539.45
2023-05-02T17:20:34.502Z,101540.78
2023-05-02T17:23:02.472Z,101547.20
2023-05-02T17:25:30.591Z,101546.56
2023-05-02T17:27:57.598Z,101552.10
2023-05-02T17:30:25.440Z,101555.16
2023-05-02T17:32:52.568Z,101556.80
2023-05-02T17:35:19.640Z,101560.72
2023-05-02T17:37:46.690Z,101565.54
2023-05-02T17:40:13.686Z,101571.56
2023-05-02T17:42:44.075Z,101573.00
2023-05-02T17:45:11.273Z,101573.20
2023-05-02T17:47:38.390Z,101573.19
2023-05-02T17:50:05.990Z,101575.59
2023-05-02T17:52:34.865Z,101577.92
2023-05-02T17:55:02.226Z,101579.84
2023-05-02T17:57:29.302Z,101587.17
2023-05-02T18:00:00.105Z,101589.51
2023-05-02T18:02:29.005Z,101587.44
2023-05-02T18:04:56.120Z,101586.59
2023-05-02T18:07:29.149Z,101595.13
2023-05-02T18:10:02.456Z,101595.34
2023-05-02T18:12:29.792Z,101597.27
2023-05-02T18:14:57.201Z,101602.29
2023-05-02T18:17:24.593Z,101602.24
2023-05-02T18:19:51.637Z,101603.64
2023-05-02T18:22:21.532Z,101599.34
2023-05-02T18:24:49.634Z,101599.87
2023-05-02T18:27:17.931Z,101602.64
2023-05-02T18:29:44.935Z,101610.88
2023-05-02T18:32:11.974Z,101613.95
2023-05-02T18:34:39.258Z,101614.95
2023-05-02T18:37:07.200Z,101619.90
2023-05-02T18:39:34.459Z,101617.05
2023-05-02T18:42:03.372Z,101617.91
2023-05-02T18:44:31.348Z,101622.27
2023-05-02T18:46:58.348Z,101629.86
2023-05-02T18:49:26.484Z,101636.77
2023-05-02T18:51:54.649Z,101645.84
2023-05-02T18:54:23.644Z,101651.52
2023-05-02T18:56:50.776Z,101656.01
2023-05-02T18:59:19.049Z,101661.83
2023-05-02T19:01:48.372Z,101667.51
2023-05-02T19:04:15.548Z,101676.16
2023-05-02T19:06:42.715Z,101678.11
2023-05-02T19:09:09.930Z,101683.24
2023-05-02T19:11:37.050Z,101691.35
2023-05-02T19:14:04.099Z,101693.38
2023-05-02T19:16:31.734Z,101697.67
2023-05-02T19:18:58.917Z,101698.72
2023-05-02T19:21:26.391Z,101709.27
2023-05-02T19:23:53.597Z,101709.48
2023-05-02T19:26:20.915Z,101717.80
2023-05-02T19:28:47.926Z,101718.58
2023-05-02T19:31:19.651Z,101726.41
2023-05-02T19:33:51.193Z,101732.31
2023-05-02T19:36:19.055Z,101736.98
2023-05-02T19:38:54.028Z,101743.39
2023-05-02T19:41:22.296Z,101754.33
2023-05-02T19:43:49.557Z,101757.02
2023-05-02T19:46:17.083Z,101762.19
2023-05-02T19:48:44.884Z,101766.99
2023-05-02T19:51:11.959Z,101776.02
2023-05-02T19:53:39.184Z,101783.27
2023-05-02T19:56:09.058Z,101791.73
2023-05-02T19:58:37.361Z,101802.65
2023-05-02T20:01:04.596Z,101810.77
2023-05-02T20:03:32.197Z,101822.59
2023-05-02T20:05:59.451Z,101828.62
2023-05-02T20:08:28.205Z,101835.52
2023-05-02T20:10:56.089Z,101845.38
2023-05-02T20:13:23.297Z,101849.13
2023-05-02T20:15:51.037Z,101854.48
2023-05-02T20:18:18.079Z,101867.00
2023-05-02T20:20:46.025Z,101880.53
2023-05-02T20:23:13.684Z,101894.06
2023-05-02T20:25:42.666Z,101904.09
2023-05-02T20:28:10.288Z,101921.45
2023-05-02T20:30:39.356Z,101929.01
2023-05-02T20:33:14.771Z,101932.34
2023-05-02T20:35:44.035Z,101934.30
2023-05-02T20:38:11.492Z,101940.09
2023-05-02T20:40:40.285Z,101945.38
2023-05-02T20:43:07.993Z,101943.13
2023-05-02T20:45:35.058Z,101946.80
2023-05-02T20:48:02.181Z,101942.77
2023-05-02T20:50:29.280Z,101935.25
2023-05-02T20:52:56.806Z,101926.33
2023-05-02T20:55:24.547Z,101921.95
2023-05-02T20:57:53.710Z,101921.08
2023-05-02T21:00:22.950Z,101922.48
2023-05-02T21:02:50.046Z,101923.02
2023-05-02T21:05:17.166Z,101922.48
2023-05-02T21:07:45.103Z,101920.91
2023-05-02T21:10:12.252Z,101922.31
2023-05-02T21:12:39.694Z,101921.63
2023-05-02T21:15:07.872Z,101919.52
2023-05-02T21:17:35.013Z,101919.02
2023-05-02T21:20:02.680Z,101920.58
2023-05-02T21:22:30.000Z,101917.61
2023-05-02T21:24:56.986Z,101924.07
2023-05-02T21:27:24.138Z,101928.45
2023-05-02T21:29:51.517Z,101933.00
2023-05-02T21:32:18.533Z,101933.53
2023-05-02T21:34:45.975Z,101935.80
2023-05-02T21:37:13.062Z,101937.91
2023-05-02T21:39:40.095Z,101938.23
2023-05-02T21:42:07.191Z,101934.91
2023-05-02T21:44:34.219Z,101931.95
2023-05-02T21:47:01.225Z,101930.36
2023-05-02T21:49:30.204Z,101930.00
2023-05-02T21:51:58.628Z,101927.72
2023-05-02T21:54:25.700Z,101928.21
2023-05-02T21:56:55.803Z,101935.04
2023-05-02T21:59:22.825Z,101939.77
2023-05-02T22:01:50.048Z,101944.65
2023-05-02T22:04:18.212Z,101945.70
2023-05-02T22:06:51.845Z,101944.65
2023-05-02T22:09:19.765Z,101945.68
2023-05-02T22:11:47.480Z,101942.50
2023-05-02T22:14:14.504Z,101944.59
2023-05-02T22:16:41.598Z,101944.37
2023-05-02T22:19:11.011Z,101946.30
2023-05-02T22:21:38.011Z,101951.55
2023-05-02T22:24:05.417Z,101952.77
2023-05-02T22:26:32.395Z,101954.14
2023-05-02T22:28:59.371Z,101955.00
2023-05-02T22:31:27.417Z,101951.30
2023-05-02T22:33:54.533Z,101954.94
2023-05-02T22:36:21.612Z,101951.73
2023-05-02T22:38:48.727Z,101948.55
2023-05-02T22:41:15.770Z,101952.33
2023-05-02T22:43:42.822Z,101955.11
2023-05-02T22:46:09.889Z,101953.86
2023-05-02T22:48:36.990Z,101957.00
2023-05-02T22:51:04.154Z,101958.75
2023-05-02T22:53:31.584Z,101965.22
2023-05-02T22:55:58.622Z,101966.44
2023-05-02T22:58:25.621Z,101967.33
2023-05-02T23:00:52.661Z,101969.25
2023-05-02T23:03:19.759Z,101969.95
2023-05-02T23:05:47.092Z,101970.13
2023-05-02T23:08:14.183Z,101971.69
2023-05-02T23:10:41.250Z,101974.98
2023-05-02T23:13:08.299Z,101973.39
2023-05-02T23:15:35.349Z,101974.73
2023-05-02T23:18:02.506Z,101972.27
2023-05-02T23:20:29.565Z,101976.23
2023-05-02T23:22:56.769Z,101973.05
2023-05-02T23:25:23.753Z,101976.33
2023-05-02T23:29:09.601Z,101975.58
2023-05-02T23:31:37.023Z,101979.70
2023-05-02T23:34:04.124Z,101978.64
2023-05-02T23:36:34.838Z,101979.14
2023-05-02T23:39:02.966Z,101981.91
2023-05-02T23:41:30.198Z,101978.39
2023-05-02T23:43:57.182Z,101981.50
2023-05-02T23:46:24.843Z,101985.31
2023-05-02T23:48:52.002Z,101986.16
2023-05-02T23:51:19.034Z,101991.39
2023-05-02T23:53:46.068Z,101991.56
2023-05-02T23:56:13.120Z,101990.89
2023-05-02T23:58:40.158Z,101990.02
